createdAt,value
2018-02-02T00:01:08.957Z,99.80
2018-02-02T00:03:38.218Z,99.90
2018-02-02T00:06:06.509Z,99.90
2018-02-02T00:08:34.809Z,98.30
2018-02-02T00:11:03.129Z,97.60
2018-02-02T00:13:31.478Z,96.80
2018-02-02T00:18:39.477Z,98.70
2018-02-02T00:21:07.892Z,98.60
2018-02-02T00:23:36.443Z,98.60
2018-02-02T00:26:04.777Z,99.40
2018-02-02T00:28:33.092Z,99.20
2018-02-02T00:31:02.156Z,99.90
2018-02-02T00:33:30.479Z,99.90
2018-02-02T00:35:58.783Z,99.90
2018-02-02T00:38:27.929Z,99.90
2018-02-02T00:40:56.252Z,99.90
2018-02-02T00:43:24.587Z,99.90
2018-02-02T00:45:53.670Z,99.90
2018-02-02T00:48:22.011Z,99.90
2018-02-02T00:50:55.808Z,99.90
2018-02-02T00:53:25.158Z,99.90
2018-02-02T00:55:53.497Z,99.90
2018-02-02T00:58:22.565Z,99.90
2018-02-02T01:00:50.904Z,99.90
2018-02-02T01:03:19.958Z,99.90
2018-02-02T01:05:48.293Z,99.90
2018-02-02T01:08:17.368Z,99.90
2018-02-02T01:10:45.772Z,99.90
2018-02-02T01:13:14.152Z,99.90
2018-02-02T01:15:42.471Z,99.90
2018-02-02T01:18:10.770Z,99.90
2018-02-02T01:20:39.120Z,99.90
2018-02-02T01:23:07.514Z,99.90
2018-02-02T01:25:35.896Z,99.90
2018-02-02T01:28:04.262Z,99.90
2018-02-02T01:30:32.549Z,99.90
2018-02-02T01:33:00.888Z,99.90
2018-02-02T01:35:29.239Z,99.90
2018-02-02T01:37:57.562Z,99.90
2018-02-02T01:40:25.905Z,99.90
2018-02-02T01:42:54.231Z,99.90
2018-02-02T01:45:22.614Z,99.90
2018-02-02T02:01:24.248Z,99.90
2018-02-02T02:03:52.558Z,99.90
2018-02-02T02:06:20.859Z,99.90
2018-02-02T02:08:49.199Z,99.90
2018-02-02T02:11:17.501Z,99.90
2018-02-02T02:13:45.808Z,99.90
2018-02-02T02:16:14.198Z,99.90
2018-02-02T02:18:42.813Z,99.90
2018-02-02T02:21:11.120Z,99.90
2018-02-02T02:23:39.416Z,99.90
2018-02-02T02:26:08.527Z,99.90
2018-02-02T02:28:37.584Z,99.90
2018-02-02T02:31:05.926Z,99.90
2018-02-02T02:33:35.016Z,99.90
2018-02-02T02:36:03.389Z,99.90
2018-02-02T02:38:31.701Z,99.90
2018-02-02T02:41:00.041Z,99.90
2018-02-02T02:43:28.380Z,99.90
2018-02-02T02:45:56.684Z,99.90
2018-02-02T02:48:25.799Z,99.90
2018-02-02T02:50:54.876Z,99.90
2018-02-02T02:53:23.228Z,99.90
2018-02-02T02:55:51.550Z,99.90
2018-02-02T02:58:19.896Z,99.90
2018-02-02T03:00:48.207Z,99.90
2018-02-02T03:03:16.550Z,99.90
2018-02-02T03:05:44.927Z,99.90
2018-02-02T03:08:13.217Z,99.90
2018-02-02T03:10:41.511Z,99.90
2018-02-02T03:13:09.916Z,99.90
2018-02-02T03:15:38.979Z,99.90
2018-02-02T03:18:07.316Z,99.90
2018-02-02T03:20:36.378Z,99.90
2018-02-02T03:23:04.737Z,99.90
2018-02-02T03:25:33.031Z,99.90
2018-02-02T03:28:01.345Z,99.90
2018-02-02T03:30:29.740Z,99.90
2018-02-02T03:32:58.066Z,99.90
2018-02-02T03:35:27.167Z,99.90
2018-02-02T03:37:55.503Z,99.90
2018-02-02T03:40:23.832Z,99.90
2018-02-02T03:42:52.133Z,99.90
2018-02-02T03:45:20.677Z,99.90
2018-02-02T03:47:48.975Z,99.90
2018-02-02T03:50:17.292Z,99.90
2018-02-02T03:52:45.636Z,99.90
2018-02-02T03:55:13.920Z,99.90
2018-02-02T03:57:42.269Z,99.90
2018-02-02T04:00:10.567Z,99.90
2018-02-02T04:02:39.141Z,99.90
2018-02-02T04:05:07.463Z,99.90
2018-02-02T04:07:35.781Z,99.90
2018-02-02T04:10:04.121Z,99.90
2018-02-02T04:12:32.413Z,99.90
2018-02-02T04:15:00.729Z,99.90
2018-02-02T04:17:29.796Z,99.90
2018-02-02T04:19:58.124Z,99.90
2018-02-02T04:22:27.279Z,98.90
2018-02-02T04:24:55.645Z,98.90
2018-02-02T04:27:23.940Z,99.40
2018-02-02T04:29:52.253Z,99.90
2018-02-02T04:32:20.544Z,99.90
2018-02-02T04:34:54.347Z,99.90
2018-02-02T04:37:22.688Z,99.90
2018-02-02T04:39:50.976Z,99.90
2018-02-02T04:42:19.367Z,99.00
2018-02-02T04:44:47.663Z,99.40
2018-02-02T04:47:15.984Z,99.10
2018-02-02T04:49:44.322Z,99.80
2018-02-02T04:52:12.611Z,99.90
2018-02-02T04:54:41.187Z,99.20
2018-02-02T04:57:09.463Z,98.60
2018-02-02T04:59:37.744Z,98.70
2018-02-02T05:02:06.060Z,98.40
2018-02-02T05:04:34.345Z,97.90
2018-02-02T05:07:02.685Z,96.50
2018-02-02T05:09:31.777Z,96.50
2018-02-02T05:12:00.839Z,95.60
2018-02-02T05:14:29.225Z,95.60
2018-02-02T05:16:57.574Z,95.60
2018-02-02T05:19:26.671Z,96.30
2018-02-02T05:21:54.992Z,96.40
2018-02-02T05:24:23.324Z,95.30
2018-02-02T05:26:51.650Z,95.00
2018-02-02T05:29:20.706Z,94.30
2018-02-02T05:31:49.020Z,94.40
2018-02-02T05:34:18.128Z,94.60
2018-02-02T05:36:46.800Z,94.60
2018-02-02T05:39:15.089Z,94.80
2018-02-02T05:41:43.392Z,95.20
2018-02-02T05:44:11.700Z,94.40
2018-02-02T05:46:39.993Z,94.70
2018-02-02T05:49:08.314Z,94.10
2018-02-02T05:51:37.397Z,94.10
2018-02-02T05:54:05.702Z,94.00
2018-02-02T05:56:34.043Z,94.50
2018-02-02T05:59:02.611Z,95.10
2018-02-02T06:01:30.934Z,95.60
2018-02-02T06:03:59.289Z,95.20
2018-02-02T06:06:27.624Z,95.50
2018-02-02T06:08:55.921Z,95.60
2018-02-02T06:11:24.297Z,95.90
2018-02-02T06:13:52.589Z,95.60
2018-02-02T06:16:20.884Z,96.50
2018-02-02T06:18:49.217Z,95.90
2018-02-02T06:21:17.517Z,94.50
2018-02-02T06:23:45.840Z,93.70
2018-02-02T06:26:14.151Z,95.30
2018-02-02T06:28:42.479Z,94.20
2018-02-02T06:31:11.573Z,93.00
2018-02-02T06:33:39.912Z,93.00
2018-02-02T06:36:08.196Z,92.30
2018-02-02T06:38:36.492Z,93.00
2018-02-02T06:41:04.857Z,93.00
2018-02-02T06:43:33.173Z,92.00
2018-02-02T06:46:01.526Z,93.20
2018-02-02T06:48:30.621Z,92.80
2018-02-02T06:50:58.941Z,92.90
2018-02-02T06:53:27.232Z,93.00
2018-02-02T06:55:55.552Z,93.10
2018-02-02T06:58:23.926Z,93.10
2018-02-02T07:00:52.309Z,93.80
2018-02-02T07:03:20.629Z,94.10
2018-02-02T07:05:48.908Z,95.40
2018-02-02T07:08:17.255Z,95.30
2018-02-02T07:10:46.341Z,97.20
2018-02-02T07:13:14.769Z,97.30
2018-02-02T07:15:43.066Z,98.30
2018-02-02T07:18:11.655Z,99.10
2018-02-02T07:20:40.717Z,99.60
2018-02-02T07:23:09.006Z,99.60
2018-02-02T07:25:37.337Z,99.90
2018-02-02T07:28:06.401Z,99.90
2018-02-02T07:30:34.731Z,99.90
2018-02-02T07:33:03.799Z,99.90
2018-02-02T07:35:32.159Z,99.90
2018-02-02T07:38:00.439Z,99.90
2018-02-02T07:40:28.774Z,99.90
2018-02-02T07:42:57.159Z,99.90
2018-02-02T07:45:25.495Z,99.90
2018-02-02T07:47:54.585Z,99.90
2018-02-02T07:50:22.916Z,99.90
2018-02-02T07:52:51.208Z,99.90
2018-02-02T07:55:19.538Z,99.90
2018-02-02T07:57:47.890Z,99.90
2018-02-02T08:00:16.500Z,99.90
2018-02-02T08:02:44.833Z,99.90
2018-02-02T08:05:13.891Z,99.90
2018-02-02T08:07:42.401Z,99.90
2018-02-02T08:10:10.691Z,99.90
2018-02-02T08:12:39.031Z,99.90
2018-02-02T08:15:08.297Z,99.90
2018-02-02T08:17:36.583Z,99.90
2018-02-02T08:20:04.936Z,99.90
2018-02-02T08:22:33.461Z,99.90
2018-02-02T08:25:01.753Z,99.90
2018-02-02T08:27:30.044Z,99.90
2018-02-02T08:29:58.516Z,99.90
2018-02-02T08:32:26.807Z,99.90
2018-02-02T08:34:55.132Z,99.90
2018-02-02T08:37:23.529Z,99.90
2018-02-02T08:39:51.900Z,99.90
2018-02-02T08:42:20.446Z,99.90
2018-02-02T08:44:54.878Z,99.90
2018-02-02T08:47:28.959Z,99.90
2018-02-02T08:49:58.263Z,99.90
2018-02-02T08:52:27.330Z,99.90
2018-02-02T08:54:55.654Z,99.90
2018-02-02T08:57:24.034Z,99.90
2018-02-02T08:59:52.524Z,99.90
2018-02-02T09:02:20.878Z,99.90
2018-02-02T09:04:49.206Z,99.90
2018-02-02T09:07:17.696Z,99.30
2018-02-02T09:09:45.976Z,95.40
2018-02-02T09:12:14.255Z,91.50
2018-02-02T09:14:43.033Z,89.60
2018-02-02T09:17:11.368Z,92.40
2018-02-02T09:19:39.707Z,92.80
2018-02-02T09:22:07.987Z,96.80
2018-02-02T09:24:36.327Z,96.90
2018-02-02T09:27:03.964Z,95.20
2018-02-02T09:29:32.322Z,96.60
2018-02-02T09:32:00.626Z,94.80
2018-02-02T09:34:29.145Z,93.70
2018-02-02T09:36:57.428Z,92.30
2018-02-02T09:39:25.718Z,94.10
2018-02-02T09:41:54.077Z,93.30
2018-02-02T09:44:22.368Z,92.20
2018-02-02T09:46:50.722Z,92.60
2018-02-02T09:49:19.010Z,93.30
2018-02-02T09:51:47.385Z,93.50
2018-02-02T09:54:15.681Z,94.40
2018-02-02T09:56:44.011Z,94.60
2018-02-02T09:59:12.360Z,94.80
2018-02-02T10:01:40.675Z,95.30
2018-02-02T10:04:09.122Z,95.50
2018-02-02T10:06:37.524Z,96.60
2018-02-02T10:09:05.864Z,95.90
2018-02-02T10:11:34.158Z,93.70
2018-02-02T10:14:02.635Z,93.00
2018-02-02T10:16:31.075Z,93.40
2018-02-02T10:19:00.147Z,92.80
2018-02-02T10:21:28.565Z,92.90
2018-02-02T10:23:57.672Z,93.10
2018-02-02T10:26:26.740Z,94.10
2018-02-02T10:28:55.139Z,94.10
2018-02-02T10:31:23.437Z,92.00
2018-02-02T10:33:51.736Z,91.30
2018-02-02T10:36:20.064Z,90.40
2018-02-02T10:38:48.356Z,91.00
2018-02-02T10:41:17.492Z,91.30
2018-02-02T10:43:45.775Z,92.10
2018-02-02T10:46:14.060Z,93.60
2018-02-02T10:48:42.364Z,92.00
2018-02-02T10:51:10.690Z,91.50
2018-02-02T10:53:39.291Z,91.20
2018-02-02T10:56:08.629Z,91.70
2018-02-02T10:58:37.025Z,91.30
2018-02-02T11:01:10.876Z,91.50
2018-02-02T11:03:54.891Z,88.80
2018-02-02T11:06:23.200Z,89.60
2018-02-02T11:08:51.532Z,88.20
2018-02-02T11:11:19.823Z,88.30
2018-02-02T11:13:48.108Z,89.60
2018-02-02T11:16:16.433Z,89.20
2018-02-02T11:18:45.554Z,89.00
2018-02-02T11:21:13.908Z,89.00
2018-02-02T11:23:42.217Z,90.30
2018-02-02T11:26:10.545Z,90.40
2018-02-02T11:28:38.886Z,88.80
2018-02-02T11:31:07.948Z,88.40
2018-02-02T11:33:36.318Z,88.40
2018-02-02T11:36:04.636Z,88.40
2018-02-02T11:38:32.969Z,88.30
2018-02-02T11:41:02.204Z,87.00
2018-02-02T11:43:30.572Z,87.10
2018-02-02T11:45:59.883Z,87.60
2018-02-02T11:48:29.020Z,87.90
2018-02-02T11:50:57.307Z,87.90
2018-02-02T11:53:25.592Z,88.40
2018-02-02T11:55:53.932Z,89.90
2018-02-02T11:58:23.047Z,89.70
2018-02-02T12:00:51.374Z,89.80
2018-02-02T12:03:19.676Z,89.80
2018-02-02T12:05:47.964Z,86.70
2018-02-02T12:08:17.088Z,87.70
2018-02-02T12:10:45.373Z,87.70
2018-02-02T12:13:13.891Z,85.80
2018-02-02T12:15:42.172Z,88.10
2018-02-02T12:18:10.480Z,84.70
2018-02-02T12:20:38.859Z,85.20
2018-02-02T12:36:34.760Z,89.70
2018-02-02T12:39:03.046Z,90.10
2018-02-02T12:41:31.412Z,90.50
2018-02-02T12:43:59.716Z,92.10
2018-02-02T12:46:28.008Z,92.30
2018-02-02T12:49:02.909Z,92.00
2018-02-02T12:51:31.980Z,93.80
2018-02-02T12:54:00.319Z,93.90
2018-02-02T12:56:28.647Z,94.90
2018-02-02T12:58:57.340Z,97.00
2018-02-02T13:01:25.647Z,98.70
2018-02-02T13:03:53.992Z,98.50
2018-02-02T13:06:22.316Z,99.90
2018-02-02T13:08:50.621Z,99.90
2018-02-02T13:11:18.984Z,99.90
2018-02-02T13:13:47.280Z,99.90
2018-02-02T13:16:15.615Z,99.90
2018-02-02T13:18:43.915Z,99.90
2018-02-02T13:21:13.062Z,99.90
2018-02-02T13:23:41.360Z,99.90
2018-02-02T13:26:09.645Z,99.90
2018-02-02T13:28:37.997Z,99.90
2018-02-02T13:31:07.065Z,99.90
2018-02-02T13:33:35.405Z,99.90
2018-02-02T13:36:04.501Z,99.90
2018-02-02T13:38:33.568Z,99.90
2018-02-02T13:41:01.924Z,99.90
2018-02-02T13:43:30.211Z,99.90
2018-02-02T13:45:58.505Z,99.90
2018-02-02T13:48:26.905Z,99.90
2018-02-02T13:50:56.105Z,99.90
2018-02-02T13:53:25.084Z,99.90
2018-02-02T13:55:54.150Z,99.90
2018-02-02T13:58:22.532Z,99.90
2018-02-02T14:00:50.868Z,99.90
2018-02-02T14:03:19.936Z,99.90
2018-02-02T14:05:48.232Z,99.90
2018-02-02T14:08:16.556Z,99.90
2018-02-02T14:10:44.899Z,99.90
2018-02-02T14:13:13.287Z,99.90
2018-02-02T14:15:41.661Z,99.90
2018-02-02T14:18:09.944Z,99.90
2018-02-02T14:20:38.284Z,99.90
2018-02-02T14:23:06.569Z,99.90
2018-02-02T14:25:34.916Z,99.90
2018-02-02T14:28:03.209Z,99.90
2018-02-02T14:30:31.556Z,99.90
2018-02-02T14:32:59.844Z,99.90
2018-02-02T14:35:28.260Z,99.90
2018-02-02T14:37:57.315Z,99.90
2018-02-02T14:40:25.684Z,99.90
2018-02-02T14:42:54.000Z,99.90
2018-02-02T14:45:22.330Z,99.90
2018-02-02T14:47:50.842Z,99.90
2018-02-02T14:50:19.190Z,99.90
2018-02-02T14:52:47.436Z,99.90
2018-02-02T14:55:15.752Z,99.90
2018-02-02T14:57:44.084Z,99.90
2018-02-02T15:00:12.391Z,99.90
2018-02-02T15:02:41.536Z,99.90
2018-02-02T15:05:09.837Z,99.90
2018-02-02T15:07:38.170Z,99.90
2018-02-02T15:10:07.318Z,99.90
2018-02-02T15:12:35.723Z,99.90
2018-02-02T15:15:04.032Z,99.90
2018-02-02T15:17:32.345Z,99.90
2018-02-02T15:20:01.499Z,99.90
2018-02-02T15:22:44.697Z,99.90
2018-02-02T15:25:13.748Z,99.90
2018-02-02T15:27:42.029Z,99.90
2018-02-02T15:30:10.531Z,99.90
2018-02-02T15:32:38.852Z,99.90
2018-02-02T15:35:07.204Z,99.90
2018-02-02T15:37:35.549Z,99.90
2018-02-02T15:40:03.841Z,99.90
2018-02-02T15:42:33.236Z,99.90
2018-02-02T15:45:01.520Z,99.90
2018-02-02T15:47:29.836Z,99.90
2018-02-02T15:49:58.157Z,99.90
2018-02-02T15:52:26.440Z,99.90
2018-02-02T15:54:55.568Z,99.90
2018-02-02T15:57:23.888Z,99.90
2018-02-02T15:59:52.189Z,99.90
2018-02-02T16:02:20.523Z,99.90
2018-02-02T16:04:48.820Z,99.90
2018-02-02T16:07:17.164Z,99.90
2018-02-02T16:09:45.504Z,99.90
2018-02-02T16:12:13.806Z,99.90
2018-02-02T16:14:42.125Z,99.90
2018-02-02T16:17:10.478Z,99.90
2018-02-02T16:19:38.765Z,99.90
2018-02-02T16:22:07.115Z,99.90
2018-02-02T16:24:35.420Z,99.90
2018-02-02T16:27:03.799Z,99.90
2018-02-02T16:29:33.075Z,99.90
2018-02-02T16:32:01.367Z,99.90
2018-02-02T16:34:29.892Z,99.90
2018-02-02T16:36:58.180Z,99.90
2018-02-02T16:39:26.505Z,99.90
2018-02-02T16:41:55.619Z,99.90
2018-02-02T16:44:23.941Z,99.90
2018-02-02T16:46:52.264Z,99.90
2018-02-02T16:49:20.602Z,99.90
2018-02-02T16:51:48.936Z,99.90
2018-02-02T16:54:17.263Z,99.90
2018-02-02T16:56:45.634Z,99.90
2018-02-02T16:59:14.838Z,99.90
2018-02-02T17:01:43.848Z,99.90
2018-02-02T17:04:12.180Z,98.40
2018-02-02T17:06:40.514Z,98.80
2018-02-02T17:09:08.792Z,98.00
2018-02-02T17:11:37.152Z,99.30
2018-02-02T17:14:05.514Z,99.10
2018-02-02T17:16:34.605Z,98.20
2018-02-02T17:19:02.928Z,98.30
2018-02-02T17:21:31.505Z,98.60
2018-02-02T17:24:00.582Z,98.20
2018-02-02T17:26:28.976Z,98.20
2018-02-02T17:29:03.165Z,99.50
2018-02-02T17:31:31.500Z,99.90
2018-02-02T17:33:59.784Z,99.90
2018-02-02T17:36:28.117Z,99.20
2018-02-02T17:38:56.708Z,99.00
2018-02-02T17:41:25.573Z,99.90
2018-02-02T17:43:53.880Z,99.90
2018-02-02T17:46:22.196Z,99.90
2018-02-02T17:48:51.255Z,99.90
2018-02-02T17:51:19.591Z,99.90
2018-02-02T17:53:48.649Z,99.90
2018-02-02T17:56:17.005Z,99.90
2018-02-02T17:58:45.360Z,99.90
2018-02-02T18:01:25.454Z,99.90
2018-02-02T18:03:54.496Z,99.90
2018-02-02T18:06:22.815Z,99.90
2018-02-02T18:08:51.239Z,99.90
2018-02-02T18:11:19.536Z,99.90
2018-02-02T18:13:48.592Z,99.90
2018-02-02T18:16:16.919Z,99.90
2018-02-02T18:18:48.709Z,99.90
2018-02-02T18:21:17.107Z,99.90
2018-02-02T18:23:45.523Z,99.90
2018-02-02T18:26:13.804Z,99.90
2018-02-02T18:28:42.100Z,99.90
2018-02-02T18:31:10.644Z,99.90
2018-02-02T18:33:38.952Z,99.90
2018-02-02T18:36:08.009Z,99.90
2018-02-02T18:38:36.332Z,99.90
2018-02-02T18:41:04.716Z,99.90
2018-02-02T18:43:33.031Z,99.90
2018-02-02T18:46:02.200Z,99.90
2018-02-02T18:48:30.521Z,99.90
2018-02-02T18:51:00.436Z,98.00
2018-02-02T18:53:28.757Z,98.10
2018-02-02T18:55:57.806Z,99.20
2018-02-02T18:58:26.163Z,99.30
2018-02-02T19:00:54.554Z,99.60
2018-02-02T19:03:22.932Z,99.90
2018-02-02T19:05:51.284Z,99.10
2018-02-02T19:08:19.596Z,99.20
2018-02-02T19:10:49.373Z,98.30
2018-02-02T19:13:17.651Z,99.00
2018-02-02T19:15:46.032Z,99.90
2018-02-02T19:18:14.327Z,98.60
2018-02-02T19:20:42.643Z,98.30
2018-02-02T19:23:10.998Z,98.70
2018-02-02T19:25:39.321Z,99.20
2018-02-02T19:28:07.904Z,98.80
2018-02-02T19:30:36.194Z,98.10
2018-02-02T19:33:04.591Z,98.70
2018-02-02T19:35:32.952Z,98.10
2018-02-02T19:38:01.275Z,97.60
2018-02-02T19:40:29.567Z,97.00
2018-02-02T19:42:57.904Z,97.60
2018-02-02T19:45:27.004Z,99.10
2018-02-02T19:47:56.119Z,97.60
2018-02-02T19:50:25.248Z,97.30
2018-02-02T19:52:54.312Z,96.80
2018-02-02T19:55:22.635Z,96.80
2018-02-02T19:57:58.319Z,95.50
2018-02-02T20:00:26.759Z,95.40
2018-02-02T20:02:55.046Z,95.80
2018-02-02T20:05:23.340Z,96.30
2018-02-02T20:07:51.658Z,94.80
2018-02-02T20:10:21.763Z,95.70
2018-02-02T20:12:50.091Z,95.80
2018-02-02T20:15:19.129Z,95.70
2018-02-02T20:17:47.436Z,95.70
2018-02-02T20:20:15.728Z,96.30
2018-02-02T20:22:44.020Z,96.00
2018-02-02T20:25:12.336Z,97.00
2018-02-02T20:27:41.585Z,96.40
2018-02-02T20:30:09.893Z,97.10
2018-02-02T20:32:38.228Z,97.40
2018-02-02T20:35:06.796Z,96.80
2018-02-02T20:37:35.932Z,96.90
2018-02-02T20:40:04.276Z,96.80
2018-02-02T20:42:33.330Z,96.90
2018-02-02T20:45:01.608Z,98.00
2018-02-02T20:47:29.973Z,98.30
2018-02-02T20:49:58.391Z,99.20
2018-02-02T20:52:26.691Z,99.90
2018-02-02T20:54:54.981Z,99.00
2018-02-02T20:57:23.304Z,99.90
2018-02-02T20:59:51.580Z,99.90
2018-02-02T21:02:20.711Z,99.90
2018-02-02T21:04:49.202Z,99.90
2018-02-02T21:07:17.546Z,99.90
2018-02-02T21:09:45.832Z,99.90
2018-02-02T21:12:14.119Z,99.90
2018-02-02T21:14:43.237Z,99.90
2018-02-02T21:17:11.548Z,99.90
2018-02-02T21:19:40.644Z,99.90
2018-02-02T21:22:08.963Z,99.90
2018-02-02T21:24:37.298Z,99.90
2018-02-02T21:27:05.592Z,99.90
2018-02-02T21:29:34.151Z,99.90
2018-02-02T21:32:02.432Z,99.90
2018-02-02T21:34:31.319Z,99.90
2018-02-02T21:37:01.769Z,99.90
2018-02-02T21:39:30.074Z,99.90
2018-02-02T21:41:58.376Z,99.90
2018-02-02T21:44:27.793Z,99.90
2018-02-02T21:46:56.130Z,99.90
2018-02-02T21:49:25.657Z,99.90
2018-02-02T21:51:54.756Z,99.90
2018-02-02T21:54:23.060Z,99.90
2018-02-02T21:56:52.150Z,99.90
2018-02-02T21:59:20.629Z,99.90
2018-02-02T22:01:49.046Z,99.90
2018-02-02T22:04:18.120Z,99.90
2018-02-02T22:06:46.403Z,99.90
2018-02-02T22:09:14.711Z,99.90
2018-02-02T22:11:43.036Z,99.90
2018-02-02T22:14:11.424Z,99.90
2018-02-02T22:16:40.484Z,99.90
2018-02-02T22:19:09.899Z,99.90
2018-02-02T22:21:38.211Z,99.90
2018-02-02T22:24:06.532Z,99.90
2018-02-02T22:26:35.605Z,99.90
2018-02-02T22:29:05.880Z,99.90
2018-02-02T22:31:34.971Z,99.90
2018-02-02T22:34:05.627Z,99.90
2018-02-02T22:36:33.991Z,99.90
2018-02-02T22:39:02.292Z,99.90
2018-02-02T22:41:30.581Z,99.90
2018-02-02T22:43:58.915Z,99.20
2018-02-02T22:46:27.193Z,98.50
2018-02-02T22:48:57.070Z,98.30
2018-02-02T22:51:25.364Z,98.20
2018-02-02T22:53:53.853Z,99.00
2018-02-02T22:56:22.181Z,99.90
2018-02-02T22:58:51.268Z,99.40
2018-02-02T23:01:20.370Z,99.50
2018-02-02T23:03:48.662Z,99.90
2018-02-02T23:06:17.180Z,98.40
2018-02-02T23:08:45.517Z,98.10
2018-02-02T23:11:13.839Z,98.30
2018-02-02T23:13:43.603Z,97.30
2018-02-02T23:16:11.932Z,97.30
2018-02-02T23:18:40.279Z,98.40
2018-02-02T23:21:08.606Z,97.70
2018-02-02T23:23:37.674Z,96.50
2018-02-02T23:26:06.011Z,97.90
2018-02-02T23:28:34.331Z,97.40
2018-02-02T23:31:03.372Z,97.10
2018-02-02T23:33:31.684Z,97.10
2018-02-02T23:35:59.999Z,97.20
2018-02-02T23:38:28.360Z,97.40
2018-02-02T23:40:56.650Z,96.70
2018-02-02T23:43:24.969Z,96.90
2018-02-02T23:45:53.280Z,97.90
2018-02-02T23:48:22.373Z,98.40
2018-02-02T23:50:50.705Z,98.40
2018-02-02T23:53:19.869Z,98.90
2018-02-02T23:55:48.207Z,99.30
2018-02-02T23:58:16.492Z,99.00
